Time;durP1;ratioP1;P1;durP2;ratioP2;P2;SDS_P1;SDS_P2;PMS_P1;PMS_P2;Temp;Humidity;BMP_temperature;BMP_pressure;BME280_temperature;BME280_humidity;BME280_pressure;Samples;Min_cycle;Max_cycle;Signal;HPM_P1;HPM_P2
2021/12/14 00:01:48;;;;;;;7.65;6.85;;;;;;;8.16;100.00;102574.31;5054248;28;20033;-56
2021/12/14 00:04:19;;;;;;;7.93;6.40;;;;;;;8.17;100.00;102591.72;5053841;28;20032;-52
2021/12/14 00:06:46;;;;;;;9.30;8.10;;;;;;;8.23;100.00;102602.34;5053973;28;20033;-56
2021/12/14 00:09:22;;;;;;;6.75;6.07;;;;;;;8.16;100.00;102600.38;5053661;28;20487;-56
2021/12/14 00:12:10;;;;;;;7.15;5.43;;;;;;;8.21;100.00;102617.00;5053936;28;20078;-55
2021/12/14 00:17:15;;;;;;;11.93;7.78;;;;;;;8.16;100.00;102631.59;5053867;28;20025;-55
2021/12/14 00:19:40;;;;;;;10.93;7.25;;;;;;;8.13;100.00;102626.31;5053703;28;20510;-55
2021/12/14 00:22:20;;;;;;;10.48;7.93;;;;;;;8.19;100.00;102636.94;5055236;28;20056;-52
2021/12/14 00:24:47;;;;;;;12.30;8.30;;;;;;;8.16;100.00;102630.75;5054107;28;20044;-53
2021/12/14 00:27:15;;;;;;;9.43;6.93;;;;;;;8.21;100.00;102640.44;5053685;28;20051;-54
2021/12/14 00:29:47;;;;;;;9.20;7.32;;;;;;;8.14;100.00;102650.63;5053765;28;20102;-51
2021/12/14 00:32:20;;;;;;;9.80;8.02;;;;;;;8.13;100.00;102670.56;5053792;28;20047;-51
2021/12/14 00:34:51;;;;;;;27.48;8.27;;;;;;;8.08;100.00;102674.78;5053705;28;20468;-51
2021/12/14 00:37:30;;;;;;;8.60;7.68;;;;;;;8.09;100.00;102660.91;5053592;28;20029;-51
2021/12/14 00:39:59;;;;;;;16.42;6.40;;;;;;;8.12;100.00;102650.56;5053694;28;20028;-53
2021/12/14 00:42:25;;;;;;;7.75;6.88;;;;;;;8.11;100.00;102647.94;5053578;28;20028;-51
2021/12/14 00:44:50;;;;;;;6.20;5.43;;;;;;;8.10;100.00;102628.84;5053676;28;20033;-53
2021/12/14 00:47:17;;;;;;;11.27;7.07;;;;;;;8.11;100.00;102627.13;5053362;28;20036;-51
2021/12/14 00:49:42;;;;;;;8.65;5.88;;;;;;;8.11;100.00;102625.41;5053534;28;20040;-51
2021/12/14 00:52:08;;;;;;;10.88;7.35;;;;;;;8.09;100.00;102637.47;5053448;28;20086;-51
2021/12/14 00:54:35;;;;;;;9.60;6.15;;;;;;;8.12;100.00;102634.97;5053474;28;20029;-51
2021/12/14 00:57:01;;;;;;;9.23;4.78;;;;;;;8.10;100.00;102631.44;5053538;28;20052;-51
2021/12/14 00:59:26;;;;;;;12.60;6.80;;;;;;;8.09;100.00;102634.88;5053485;28;20048;-54
2021/12/14 01:01:58;;;;;;;6.18;5.25;;;;;;;8.07;100.00;102620.06;5053346;28;20082;-53
2021/12/14 01:04:31;;;;;;;11.43;6.55;;;;;;;8.05;100.00;102635.63;5051511;28;20044;-54
2021/12/14 01:06:58;;;;;;;6.13;4.63;;;;;;;8.04;100.00;102633.88;5052064;28;20035;-53
2021/12/14 01:09:30;;;;;;;6.43;5.50;;;;;;;8.03;100.00;102621.69;5053258;28;20025;-52
2021/12/14 01:12:03;;;;;;;8.27;6.45;;;;;;;7.99;100.00;102628.53;5053204;28;20025;-54
2021/12/14 01:15:00;;;;;;;5.50;4.95;;;;;;;8.03;100.00;102608.66;5054045;28;20031;-51
2021/12/14 01:17:52;;;;;;;8.48;5.60;;;;;;;8.01;100.00;102618.13;5057082;28;20356;-55
2021/12/14 01:20:18;;;;;;;6.75;5.38;;;;;;;8.03;100.00;102614.75;5056981;28;20037;-54
2021/12/14 01:22:46;;;;;;;8.35;5.60;;;;;;;7.95;100.00;102602.34;5056646;28;20036;-52
2021/12/14 01:25:18;;;;;;;4.90;4.50;;;;;;;8.01;100.00;102610.34;5056896;28;20025;-55
2021/12/14 01:27:53;;;;;;;8.68;5.18;;;;;;;7.96;100.00;102597.16;5056718;28;20033;-52
2021/12/14 01:30:52;;;;;;;4.80;4.40;;;;;;;7.97;100.00;102592.84;5056814;28;20029;-52
2021/12/14 01:33:21;;;;;;;10.07;5.73;;;;;;;7.97;100.00;102592.84;5056813;28;20036;-53
2021/12/14 01:35:48;;;;;;;5.95;5.20;;;;;;;7.97;100.00;102592.84;5056841;28;20279;-52
2021/12/14 01:38:21;;;;;;;7.25;5.38;;;;;;;7.92;100.00;102584.06;5056488;28;20545;-52
2021/12/14 01:40:53;;;;;;;6.35;5.75;;;;;;;7.93;100.00;102585.78;5056779;28;20025;-55
2021/12/14 01:43:38;;;;;;;7.80;4.65;;;;;;;7.95;100.00;102589.34;5056725;28;20036;-53
2021/12/14 01:46:12;;;;;;;5.80;5.20;;;;;;;7.90;100.00;102570.09;5056427;28;20036;-55
2021/12/14 01:48:38;;;;;;;6.97;5.68;;;;;;;7.93;100.00;102580.59;5055305;28;20527;-52
2021/12/14 01:51:06;;;;;;;7.28;6.03;;;;;;;7.95;100.00;102587.63;5056466;28;20025;-52
2021/12/14 01:53:33;;;;;;;6.78;5.38;;;;;;;7.95;100.00;102589.34;5056426;28;20036;-52
2021/12/14 01:56:03;;;;;;;8.30;5.90;;;;;;;7.88;100.00;102576.97;5056442;28;20059;-53
2021/12/14 01:58:40;;;;;;;5.03;4.63;;;;;;;7.92;100.00;102595.31;5056203;28;20079;-54
2021/12/14 02:01:14;;;;;;;4.72;4.25;;;;;;;7.93;100.00;102586.69;5056227;28;20029;-53
2021/12/14 02:03:45;;;;;;;9.57;5.30;;;;;;;7.91;100.00;102582.28;5056243;28;20029;-54
2021/12/14 02:06:15;;;;;;;;;;;;;;;7.93;100.00;102593.59;5056616;28;20024;-54
2021/12/14 02:08:40;;;;;;;4.23;3.90;;;;;;;7.93;100.00;102593.59;5055886;28;19909;-52
2021/12/14 02:11:08;;;;;;;4.35;3.95;;;;;;;7.94;100.00;102595.38;5056125;28;20037;-55
2021/12/14 02:13:39;;;;;;;4.85;3.65;;;;;;;7.92;100.00;102604.88;5056022;28;20150;-53
2021/12/14 02:16:08;;;;;;;4.93;3.35;;;;;;;7.85;100.00;102600.28;5055974;28;20494;-57
2021/12/14 02:18:35;;;;;;;4.65;3.72;;;;;;;7.87;100.00;102601.22;5055903;28;20479;-57
2021/12/14 02:21:09;;;;;;;7.85;3.22;;;;;;;7.87;100.00;102593.44;5055931;28;20235;-53
2021/12/14 02:23:44;;;;;;;5.65;4.07;;;;;;;7.87;100.00;102601.22;5055901;28;20071;-54
2021/12/14 02:26:14;;;;;;;5.03;4.50;;;;;;;7.91;100.00;102597.88;5055652;28;20025;-51
2021/12/14 02:28:39;;;;;;;3.47;3.17;;;;;;;7.90;100.00;102580.50;5055409;28;20511;-52
2021/12/14 02:31:08;;;;;;;4.28;3.58;;;;;;;7.95;100.00;102589.34;5055660;28;20509;-53
2021/12/14 02:33:36;;;;;;;4.45;3.90;;;;;;;7.97;100.00;102590.25;5055820;28;20032;-53
2021/12/14 02:36:11;;;;;;;5.20;4.55;;;;;;;7.97;100.00;102593.75;5055535;28;20100;-54
2021/12/14 02:38:42;;;;;;;4.25;3.85;;;;;;;7.93;100.00;102588.38;5055482;28;20092;-54
2021/12/14 02:41:08;;;;;;;4.38;4.05;;;;;;;7.96;100.00;102580.69;5055557;28;20025;-54
2021/12/14 02:43:55;;;;;;;6.70;3.75;;;;;;;7.97;100.00;102577.22;5054155;28;20083;-55
2021/12/14 02:46:29;;;;;;;6.20;4.30;;;;;;;7.96;100.00;102565.09;5055313;28;20035;-55
2021/12/14 02:48:59;;;;;;;5.93;5.20;;;;;;;7.96;100.00;102575.50;5055276;28;20029;-52
2021/12/14 02:51:35;;;;;;;4.22;3.80;;;;;;;7.92;100.00;102568.44;5055257;28;20494;-54
2021/12/14 02:54:08;;;;;;;3.58;3.25;;;;;;;7.91;100.00;102562.34;5055241;28;20036;-53
2021/12/14 02:56:36;;;;;;;5.45;4.45;;;;;;;7.91;100.00;102580.56;5055286;28;20033;-54
2021/12/14 02:59:24;;;;;;;6.60;4.68;;;;;;;7.85;100.00;102556.06;5055224;28;20033;-55
2021/12/14 03:01:52;;;;;;;6.53;4.40;;;;;;;7.86;100.00;102552.63;5055023;28;20021;-52
2021/12/14 03:04:18;;;;;;;4.82;4.30;;;;;;;7.83;100.00;102548.22;5054985;28;20570;-54
2021/12/14 03:06:50;;;;;;;8.63;4.60;;;;;;;7.84;100.00;102541.31;5054937;28;20057;-52
2021/12/14 03:09:40;;;;;;;10.98;4.70;;;;;;;7.84;100.00;102543.91;5054948;28;20029;-54
2021/12/14 03:12:11;;;;;;;5.50;4.60;;;;;;;7.81;100.00;102549.00;5054932;28;20039;-55
2021/12/14 03:14:39;;;;;;;4.22;3.83;;;;;;;7.76;100.00;102553.19;5054824;28;20494;-53
2021/12/14 03:17:05;;;;;;;5.22;4.68;;;;;;;7.76;100.00;102540.19;5055922;28;20021;-51
2021/12/14 03:19:30;;;;;;;10.35;5.97;;;;;;;7.74;100.00;102541.84;5055518;28;20021;-51
2021/12/14 03:21:56;;;;;;;5.50;4.50;;;;;;;7.74;100.00;102532.31;5054962;28;20017;-52
2021/12/14 03:24:22;;;;;;;5.93;4.18;;;;;;;7.74;100.00;102521.03;5054653;28;20059;-51
2021/12/14 03:26:52;;;;;;;4.53;4.07;;;;;;;7.72;100.00;102534.00;5054730;28;20096;-51
2021/12/14 03:29:28;;;;;;;8.50;5.45;;;;;;;7.72;100.00;102533.13;5054339;28;20430;-51
2021/12/14 03:31:57;;;;;;;6.45;5.07;;;;;;;7.75;100.00;102551.41;5054558;28;20029;-53
2021/12/14 03:34:36;;;;;;;8.07;3.72;;;;;;;7.70;100.00;102558.19;5054577;28;20035;-52
2021/12/14 03:37:14;;;;;;;10.93;5.55;;;;;;;7.71;100.00;102553.06;5054004;28;20384;-51
2021/12/14 03:39:44;;;;;;;7.22;4.05;;;;;;;7.73;100.00;102560.88;5054444;28;20120;-51
2021/12/14 03:42:13;;;;;;;6.75;5.65;;;;;;;7.71;100.00;102573.88;5054338;28;20021;-51
2021/12/14 03:44:48;;;;;;;7.47;4.63;;;;;;;7.72;100.00;102580.84;5054210;28;20017;-51
2021/12/14 03:47:21;;;;;;;3.75;3.22;;;;;;;7.70;100.00;102582.50;5054322;28;20371;-52
2021/12/14 03:49:57;;;;;;;5.57;3.80;;;;;;;7.66;100.00;102585.84;5054233;28;20488;-52
2021/12/14 03:52:29;;;;;;;6.15;4.68;;;;;;;7.69;100.00;102591.13;5054274;28;20033;-51
2021/12/14 03:54:56;;;;;;;7.30;4.75;;;;;;;7.66;100.00;102587.56;5054285;28;20142;-52
2021/12/14 03:57:22;;;;;;;5.00;3.90;;;;;;;7.64;100.00;102582.31;5054164;28;20039;-52
2021/12/14 03:59:48;;;;;;;4.10;3.28;;;;;;;7.65;100.00;102591.88;5054261;28;20029;-52
2021/12/14 04:02:16;;;;;;;7.30;4.47;;;;;;;7.63;100.00;102590.06;5053977;28;20075;-52
2021/12/14 04:05:02;;;;;;;4.85;3.45;;;;;;;7.63;100.00;102597.88;5053999;28;20053;-51
2021/12/14 04:07:29;;;;;;;5.93;3.42;;;;;;;7.64;100.00;102594.44;5054042;28;20391;-51
2021/12/14 04:09:54;;;;;;;5.28;3.60;;;;;;;7.66;100.00;102608.38;5053883;28;20048;-53
2021/12/14 04:12:21;;;;;;;6.47;3.83;;;;;;;7.61;100.00;102607.31;5053789;28;20040;-52
2021/12/14 04:14:53;;;;;;;4.38;3.97;;;;;;;7.61;100.00;102602.13;5053824;28;20387;-54
2021/12/14 04:17:21;;;;;;;4.95;4.10;;;;;;;7.61;100.00;102615.13;5053724;28;20376;-52
2021/12/14 04:19:47;;;;;;;5.30;4.80;;;;;;;7.62;100.00;102609.09;5053789;28;20029;-52
2021/12/14 04:22:17;;;;;;;4.38;3.97;;;;;;;7.59;100.00;102607.31;5053809;28;20021;-53
2021/12/14 04:24:44;;;;;;;5.70;3.58;;;;;;;7.55;100.00;102603.72;5053733;28;20112;-52
2021/12/14 04:27:15;;;;;;;4.03;3.72;;;;;;;7.53;100.00;102599.28;5053699;28;20147;-52
2021/12/14 04:29:40;;;;;;;;;;;;;;;7.54;100.00;102591.53;5053942;28;20480;-55
2021/12/14 04:32:09;;;;;;;3.38;3.08;;;;;;;7.53;100.00;102584.56;5053808;28;19915;-53
2021/12/14 04:34:35;;;;;;;4.65;3.67;;;;;;;7.50;100.00;102579.28;5053674;28;20440;-52
2021/12/14 04:37:03;;;;;;;6.47;4.05;;;;;;;7.45;100.00;102579.94;5053649;28;20032;-52
2021/12/14 04:39:37;;;;;;;5.60;4.95;;;;;;;7.44;100.00;102568.66;5053582;28;20025;-51
2021/12/14 04:53:11;;;;;;;4.05;3.63;;;;;;;7.49;100.00;102572.28;5057962;28;20043;-54
2021/12/14 04:55:38;;;;;;;7.57;5.30;;;;;;;7.47;100.00;102563.59;5057463;28;20025;-54
2021/12/14 04:58:04;;;;;;;6.28;4.70;;;;;;;7.45;100.00;102569.53;5057522;28;20428;-52
2021/12/14 05:00:34;;;;;;;6.68;4.30;;;;;;;7.44;100.00;102553.06;5057501;28;20074;-52
2021/12/14 05:03:00;;;;;;;;;;;;;;;7.45;100.00;102570.44;5057806;28;20040;-53
2021/12/14 05:05:33;;;;;;;4.97;4.32;;;;;;;7.47;100.00;102566.19;5057351;28;19913;-55
2021/12/14 05:11:11;;;;;;;5.00;4.15;;;;;;;7.41;100.00;102562.47;5057574;28;20503;-56
2021/12/14 05:13:49;;;;;;;7.25;4.22;;;;;;;7.39;100.00;102564.16;5057342;28;20029;-53
2021/12/14 05:16:32;;;;;;;7.22;4.57;;;;;;;7.42;100.00;102562.53;5057274;28;20182;-53
2021/12/14 05:19:02;;;;;;;5.20;4.57;;;;;;;7.46;100.00;102566.13;5057211;28;20025;-53
2021/12/14 05:21:34;;;;;;;9.43;4.18;;;;;;;7.44;100.00;102566.06;5057072;28;20016;-53
2021/12/14 05:24:03;;;;;;;6.25;4.30;;;;;;;7.43;100.00;102577.31;5057048;28;20047;-53
2021/12/14 05:26:28;;;;;;;12.18;5.47;;;;;;;7.40;100.00;102576.34;5057065;28;20561;-52
2021/12/14 05:28:54;;;;;;;8.32;5.47;;;;;;;7.42;100.00;102564.25;5056675;28;20045;-53
2021/12/14 05:31:20;;;;;;;10.43;5.57;;;;;;;7.40;100.00;102572.03;5056774;28;20028;-55
2021/12/14 05:33:46;;;;;;;8.43;5.90;;;;;;;7.46;100.00;102567.00;5056841;28;20083;-53
2021/12/14 05:36:15;;;;;;;12.10;5.57;;;;;;;7.46;100.00;102569.59;5056977;28;20028;-55
2021/12/14 05:44:03;;;;;;;7.82;5.60;;;;;;;7.39;100.00;102565.06;5056836;28;20043;-53
2021/12/14 05:46:29;;;;;;;7.53;5.35;;;;;;;7.42;100.00;102575.53;5056598;28;20057;-55
2021/12/14 05:49:01;;;;;;;6.13;5.43;;;;;;;7.44;100.00;102581.66;5056415;28;20447;-53
2021/12/14 05:51:29;;;;;;;10.52;6.55;;;;;;;7.45;100.00;102591.25;5056486;28;20033;-53
2021/12/14 05:53:56;;;;;;;11.15;6.60;;;;;;;7.42;100.00;102582.47;5056438;28;20071;-55
2021/12/14 05:56:23;;;;;;;5.28;4.78;;;;;;;7.42;100.00;102593.75;5055252;28;20530;-52
2021/12/14 05:58:51;;;;;;;6.18;5.57;;;;;;;7.44;100.00;102589.47;5056457;28;20024;-54
2021/12/14 06:01:22;;;;;;;5.88;5.35;;;;;;;7.44;100.00;102583.41;5055829;28;20399;-53
2021/12/14 06:03:53;;;;;;;7.03;5.97;;;;;;;7.44;100.00;102584.25;5056363;28;20464;-53
2021/12/14 06:06:23;;;;;;;;;;;;;;;7.44;100.00;102589.47;5056626;28;20127;-52
2021/12/14 06:08:48;;;;;;;7.97;6.65;;;;;;;7.42;100.00;102588.53;5056088;28;19919;-51
2021/12/14 06:11:22;;;;;;;6.93;5.78;;;;;;;7.43;100.00;102585.13;5056153;28;20376;-55
2021/12/14 06:13:48;;;;;;;8.13;6.32;;;;;;;7.44;100.00;102605.06;5055955;28;20029;-53
2021/12/14 06:16:27;;;;;;;8.15;6.65;;;;;;;7.43;100.00;102592.94;5056047;28;20025;-53
2021/12/14 06:18:53;;;;;;;9.88;7.80;;;;;;;7.42;100.00;102585.94;5055925;28;20029;-55
2021/12/14 06:21:30;;;;;;;11.50;8.32;;;;;;;7.41;100.00;102594.56;5055641;28;20036;-57
2021/12/14 06:24:04;;;;;;;12.48;8.15;;;;;;;7.42;100.00;102591.16;5055431;28;20460;-56
2021/12/14 06:26:37;;;;;;;10.23;6.65;;;;;;;7.43;100.00;102600.72;5042729;28;20385;-57
2021/12/14 06:29:08;;;;;;;9.18;7.68;;;;;;;7.43;100.00;102590.31;5042611;28;20060;-57
2021/12/14 06:31:34;;;;;;;12.95;7.57;;;;;;;7.42;100.00;102593.75;5053225;28;20032;-58
2021/12/14 06:34:26;;;;;;;25.23;8.45;;;;;;;7.42;100.00;102596.34;5048557;28;20037;-56
2021/12/14 06:37:03;;;;;;;12.13;7.82;;;;;;;7.41;100.00;102602.38;5035409;28;20071;-57
2021/12/14 06:39:30;;;;;;;9.27;6.97;;;;;;;7.43;100.00;102597.25;5035753;28;20052;-56
2021/12/14 06:42:08;;;;;;;10.45;7.35;;;;;;;7.47;100.00;102607.78;5048993;28;20047;-57
2021/12/14 06:44:34;;;;;;;11.38;8.20;;;;;;;7.48;100.00;102603.47;5046032;28;20460;-56
2021/12/14 06:46:59;;;;;;;11.13;7.30;;;;;;;7.45;100.00;102606.84;5047449;28;20021;-54
2021/12/14 06:49:25;;;;;;;7.00;5.75;;;;;;;7.39;100.00;102626.56;5031908;28;20039;-54
2021/12/14 06:51:54;;;;;;;17.83;9.35;;;;;;;7.41;100.00;102620.56;5040642;28;20032;-55
2021/12/14 06:54:24;;;;;;;14.43;8.73;;;;;;;7.41;100.00;102615.38;5037727;28;20465;-55
2021/12/14 06:56:56;;;;;;;12.82;8.20;;;;;;;7.41;100.00;102617.97;5039988;28;20107;-55
2021/12/14 06:59:22;;;;;;;10.52;8.48;;;;;;;7.44;100.00;102619.81;5035735;28;20493;-56
2021/12/14 07:01:58;;;;;;;7.40;6.75;;;;;;;7.45;100.00;102627.66;5030789;28;20032;-57
2021/12/14 07:04:28;;;;;;;10.23;7.82;;;;;;;7.47;100.00;102631.19;5026551;28;20033;-57
2021/12/14 07:07:03;;;;;;;9.90;7.97;;;;;;;7.48;100.00;102632.09;5015324;28;20051;-55
2021/12/14 07:09:31;;;;;;;9.77;7.90;;;;;;;7.47;100.00;102631.19;5009298;28;20390;-54
2021/12/14 07:12:04;;;;;;;13.18;8.98;;;;;;;7.48;100.00;102645.94;4990307;28;20084;-57
2021/12/14 07:14:42;;;;;;;13.20;9.82;;;;;;;7.53;100.00;102646.09;4988767;28;20047;-57
2021/12/14 07:17:26;;;;;;;17.95;9.50;;;;;;;7.59;100.00;102638.50;4976995;28;20380;-56
2021/12/14 07:19:55;;;;;;;8.80;7.55;;;;;;;7.56;100.00;102646.22;4939126;28;20085;-56
2021/12/14 07:22:30;;;;;;;9.38;8.07;;;;;;;7.61;100.00;102651.53;4882806;28;20513;-55
2021/12/14 07:24:58;;;;;;;12.23;8.13;;;;;;;7.63;100.00;102652.50;4863570;28;20052;-55
2021/12/14 07:27:27;;;;;;;14.43;10.00;;;;;;;7.61;100.00;102646.34;4795525;28;21139;-56
2021/12/14 07:29:54;;;;;;;9.30;8.27;;;;;;;7.63;100.00;102644.69;4769782;28;20620;-55
2021/12/14 07:32:40;;;;;;;12.23;8.07;;;;;;;7.63;100.00;102652.50;4728135;28;22279;-54
2021/12/14 07:35:13;;;;;;;10.80;7.95;;;;;;;7.64;100.00;102654.28;4791998;28;20065;-54
2021/12/14 07:37:38;;;;;;;12.70;7.80;;;;;;;7.65;100.00;102661.22;4851768;28;21520;-56
2021/12/14 07:40:04;;;;;;;9.43;8.13;;;;;;;7.65;100.00;102661.22;4878784;28;20120;-54
2021/12/14 07:42:30;;;;;;;10.80;8.73;;;;;;;7.66;100.00;102657.78;4902437;28;21200;-56
2021/12/14 07:44:55;;;;;;;11.60;8.70;;;;;;;7.71;100.00;102659.72;4912677;28;20029;-55
2021/12/14 07:47:21;;;;;;;12.00;7.53;;;;;;;7.68;100.00;102667.44;4879314;28;23077;-56
2021/12/14 07:49:54;;;;;;;17.55;10.68;;;;;;;7.71;100.00;102661.44;4890008;28;23690;-55
2021/12/14 07:52:26;;;;;;;17.67;10.18;;;;;;;7.72;100.00;102668.41;4884053;28;20514;-55
2021/12/14 07:54:59;;;;;;;13.13;10.55;;;;;;;7.71;100.00;102669.25;4879642;28;22611;-55
2021/12/14 07:57:27;;;;;;;12.02;9.15;;;;;;;7.71;100.00;102669.25;4887310;28;20043;-56
2021/12/14 08:00:02;;;;;;;8.23;6.93;;;;;;;7.72;100.00;102669.31;4883035;28;21223;-56
2021/12/14 08:02:35;;;;;;;15.32;10.60;;;;;;;7.72;100.00;102652.81;4825789;28;23206;-53
2021/12/14 08:05:11;;;;;;;13.13;9.60;;;;;;;7.70;100.00;102659.66;4852576;28;20075;-56
2021/12/14 08:07:55;;;;;;;16.25;10.55;;;;;;;7.79;100.00;102683.38;4810556;28;20040;-56
2021/12/14 08:10:33;;;;;;;11.93;8.88;;;;;;;7.83;100.00;102677.44;4775828;28;20484;-56
2021/12/14 08:13:18;;;;;;;18.52;9.43;;;;;;;7.83;100.00;102677.44;4725562;28;22870;-58
2021/12/14 08:16:04;;;;;;;14.07;10.73;;;;;;;7.82;100.00;102686.97;4662123;28;21702;-55
2021/12/14 08:18:35;;;;;;;10.80;9.15;;;;;;;7.86;100.00;102693.16;4595446;28;21833;-57
2021/12/14 08:21:09;;;;;;;16.27;10.45;;;;;;;7.87;100.00;102700.13;4629602;28;20040;-56
2021/12/14 08:23:36;;;;;;;12.25;8.85;;;;;;;7.90;100.00;102700.22;4494361;28;20163;-57
2021/12/14 08:26:12;;;;;;;13.55;11.98;;;;;;;7.93;100.00;102700.31;4569573;28;20233;-57
2021/12/14 08:28:48;;;;;;;14.40;9.43;;;;;;;7.96;100.00;102700.44;4597804;22;20211;-56
2021/12/14 08:31:14;;;;;;;14.32;10.32;;;;;;;7.98;100.00;102696.13;4618271;28;20088;-57
2021/12/14 08:33:39;;;;;;;13.70;9.73;;;;;;;8.03;100.00;102702.38;4682742;28;22232;-58
2021/12/14 08:36:08;;;;;;;18.73;11.65;;;;;;;8.00;100.00;102695.34;4711358;28;22452;-57
2021/12/14 08:38:35;;;;;;;19.13;10.38;;;;;;;8.06;100.00;102692.06;4712902;28;20878;-57
2021/12/14 08:41:21;;;;;;;19.88;11.02;;;;;;;8.09;100.00;102697.34;4726353;28;21369;-57
2021/12/14 08:43:50;;;;;;;16.65;10.63;;;;;;;8.11;100.00;102700.91;4719686;28;20022;-57
2021/12/14 08:46:25;;;;;;;17.17;10.53;;;;;;;8.14;100.00;102701.00;4686738;28;20085;-58
2021/12/14 08:48:54;;;;;;;16.60;10.90;;;;;;;8.06;100.00;102681.66;4694814;28;24633;-54
2021/12/14 08:51:42;;;;;;;13.82;11.23;;;;;;;8.13;100.00;102698.31;4686911;28;20717;-57
2021/12/14 08:54:15;;;;;;;9.68;7.00;;;;;;;8.09;100.00;102689.53;4679975;28;20172;-56
2021/12/14 08:56:47;;;;;;;15.48;9.52;;;;;;;8.20;100.00;102698.56;4618380;28;21088;-57
2021/12/14 08:59:12;;;;;;;11.15;8.05;;;;;;;8.19;100.00;102696.81;4628511;28;22053;-58
2021/12/14 09:01:40;;;;;;;13.15;9.68;;;;;;;8.23;100.00;102711.69;4649268;28;20042;-57
2021/12/14 09:04:23;;;;;;;9.90;8.00;;;;;;;8.25;100.00;102715.22;4691001;28;20061;-57
2021/12/14 09:06:52;;;;;;;12.85;8.98;;;;;;;8.30;100.00;102721.50;4640336;28;20886;-55
2021/12/14 09:09:21;;;;;;;13.63;8.32;;;;;;;8.31;100.00;102715.47;4590195;28;20286;-57
2021/12/14 09:11:55;;;;;;;14.98;8.50;;;;;;;8.33;100.00;102718.97;4556417;28;23452;-58
2021/12/14 09:14:20;;;;;;;13.15;9.85;;;;;;;8.38;100.00;102725.22;4570271;28;20974;-57
2021/12/14 09:16:50;;;;;;;16.17;8.82;;;;;;;8.41;100.00;102722.69;4555219;28;22539;-57
2021/12/14 09:19:22;;;;;;;13.50;10.05;;;;;;;8.39;100.00;102708.75;4529520;28;21209;-57
2021/12/14 09:21:52;;;;;;;15.35;10.50;;;;;;;8.43;100.00;102700.19;4531992;28;22572;-57
2021/12/14 09:24:21;;;;;;;14.95;10.70;;;;;;;8.45;100.00;102723.66;4583179;28;20419;-58
2021/12/14 09:26:54;;;;;;;28.98;9.20;;;;;;;8.42;100.00;102724.47;4541375;28;20128;-57
2021/12/14 09:29:28;;;;;;;14.40;8.73;;;;;;;8.44;100.00;102712.38;4291339;28;21992;-57
2021/12/14 09:32:00;;;;;;;10.77;9.15;;;;;;;8.42;100.00;102727.09;4555667;28;20030;-56
2021/12/14 09:34:35;;;;;;;14.40;9.60;;;;;;;8.48;100.00;102716.81;4617427;28;21111;-57
2021/12/14 09:37:02;;;;;;;14.85;9.85;;;;;;;8.46;100.00;102721.13;4634036;28;20038;-54
2021/12/14 09:39:36;;;;;;;19.58;8.93;;;;;;;8.46;100.00;102721.13;4659995;28;20034;-59
2021/12/14 09:42:07;;;;;;;11.95;8.85;;;;;;;8.46;100.00;102730.66;4645949;28;21194;-54
2021/12/14 09:44:35;;;;;;;16.30;7.85;;;;;;;8.49;100.00;102721.22;4618206;28;20120;-56
2021/12/14 09:47:10;;;;;;;10.10;7.80;;;;;;;8.53;100.00;102727.38;4574520;28;24925;-55
2021/12/14 09:49:38;;;;;;;8.05;7.28;;;;;;;8.55;100.00;102724.84;4618902;28;20041;-57
2021/12/14 09:52:13;;;;;;;12.55;7.97;;;;;;;8.54;100.00;102725.69;4717621;28;20069;-58
2021/12/14 09:54:39;;;;;;;12.98;8.82;;;;;;;8.43;100.00;102687.19;4702797;28;21974;-58
2021/12/14 09:57:12;;;;;;;15.45;9.00;;;;;;;8.59;100.00;102731.91;4715283;28;20072;-55
2021/12/14 09:59:38;;;;;;;11.25;8.75;;;;;;;8.61;100.00;102725.00;4713034;28;20143;-58
2021/12/14 10:02:22;;;;;;;19.42;11.85;;;;;;;8.63;100.00;102723.34;4705629;28;23129;-55
2021/12/14 10:04:53;;;;;;;20.63;11.52;;;;;;;8.63;100.00;102728.56;4710645;28;20069;-59
2021/12/14 10:07:22;;;;;;;20.83;15.52;;;;;;;8.66;100.00;102728.66;4699764;28;20052;-57
2021/12/14 10:09:49;;;;;;;14.70;10.65;;;;;;;8.67;100.00;102725.22;4693321;28;20034;-55
2021/12/14 10:13:10;;;;;;;16.35;11.30;;;;;;;8.69;100.00;102733.94;4692307;28;20034;-59
2021/12/14 10:15:39;;;;;;;22.05;11.63;;;;;;;8.61;100.00;102719.81;4685786;28;22764;-58
2021/12/14 10:18:13;;;;;;;19.95;11.32;;;;;;;8.67;100.00;102725.22;4702042;28;25967;-56
2021/12/14 10:20:47;;;;;;;11.95;8.82;;;;;;;8.68;100.00;102733.06;4611004;28;29421;-58
2021/12/14 10:23:16;;;;;;;15.27;9.13;;;;;;;8.64;100.00;102725.97;4620189;28;22406;-57
2021/12/14 10:25:42;;;;;;;15.10;8.60;;;;;;;8.57;100.00;102712.72;4539805;28;22112;-57
2021/12/14 10:28:09;;;;;;;12.52;10.10;;;;;;;8.74;100.00;102727.16;4572269;28;21367;-57
2021/12/14 10:31:03;;;;;;;8.25;7.38;;;;;;;8.84;100.00;102721.34;4578852;28;20117;-56
2021/12/14 10:33:32;;;;;;;14.05;10.35;;;;;;;8.90;100.00;102721.53;4591769;28;21220;-56
2021/12/14 10:36:04;;;;;;;15.68;10.10;;;;;;;9.01;100.00;102714.88;4581888;28;22497;-56
2021/12/14 10:38:40;;;;;;;22.88;13.43;;;;;;;9.02;100.00;102703.63;4580722;28;21257;-58
2021/12/14 10:44:02;;;;;;;22.05;11.70;;;;;;;9.06;100.00;102715.91;4579518;28;22234;-58
2021/12/14 10:46:35;;;;;;;21.63;11.40;;;;;;;9.01;100.00;102716.63;4626440;28;21440;-55
2021/12/14 10:49:07;;;;;;;13.13;7.75;;;;;;;8.99;100.00;102713.09;4569240;28;21872;-57
2021/12/14 10:51:36;;;;;;;7.38;6.47;;;;;;;8.95;100.00;102712.13;4544796;28;22573;-57
2021/12/14 10:54:06;;;;;;;17.05;10.63;;;;;;;8.99;100.00;102729.63;4480770;28;20440;-57
2021/12/14 10:56:36;;;;;;;16.15;12.18;;;;;;;8.97;100.00;102715.66;4415389;28;20049;-55
2021/12/14 10:59:06;;;;;;;17.25;10.68;;;;;;;9.02;100.00;102719.28;4421521;28;23998;-55
2021/12/14 11:01:34;;;;;;;17.88;10.95;;;;;;;9.08;100.00;102724.66;4388252;28;21668;-58
2021/12/14 11:04:07;;;;;;;15.85;11.30;;;;;;;9.09;100.00;102725.53;4610925;28;23170;-57
2021/12/14 11:06:38;;;;;;;22.48;12.75;;;;;;;9.11;100.00;102711.72;4593963;28;20654;-57
2021/12/14 11:11:56;;;;;;;29.70;13.00;;;;;;;9.15;100.00;102710.97;4406462;28;22523;-57
2021/12/14 11:14:26;;;;;;;19.88;12.52;;;;;;;9.11;100.00;102692.56;4502048;28;21180;-58
2021/12/14 11:19:51;;;;;;;20.08;13.60;;;;;;;9.25;100.00;102702.53;4525550;28;21016;-59
2021/12/14 11:22:30;;;;;;;18.73;12.27;;;;;;;9.15;100.00;102689.22;4370051;28;20883;-58
2021/12/14 11:25:07;;;;;;;23.88;13.10;;;;;;;9.17;100.00;102683.19;4358378;28;20616;-56
2021/12/14 11:27:38;;;;;;;16.92;13.77;;;;;;;9.26;100.00;102703.41;4682142;28;20045;-59
2021/12/14 11:30:18;;;;;;;27.25;13.23;;;;;;;9.17;100.00;102696.22;4702262;28;23242;-58
2021/12/14 11:32:48;;;;;;;16.38;11.85;;;;;;;9.25;100.00;102702.53;4708703;28;20076;-58
2021/12/14 11:35:17;;;;;;;21.27;14.40;;;;;;;9.27;100.00;102695.63;4698164;28;20113;-58
2021/12/14 11:37:43;;;;;;;20.85;14.25;;;;;;;9.08;100.00;102667.28;4696833;28;20090;-58
2021/12/14 11:40:10;;;;;;;18.70;13.77;;;;;;;9.27;100.00;102706.06;4699893;28;20040;-58
2021/12/14 11:42:36;;;;;;;23.17;13.95;;;;;;;9.19;100.00;102702.38;4600320;28;21281;-55
2021/12/14 11:45:10;;;;;;;24.98;14.07;;;;;;;9.23;100.00;102704.22;4705457;28;20064;-58
2021/12/14 11:50:14;;;;;;;26.25;14.18;;;;;;;9.09;100.00;102684.69;4694222;28;20739;-57
2021/12/14 11:52:51;;;;;;;20.70;13.50;;;;;;;9.27;100.00;102699.97;4718328;28;20052;-57
2021/12/14 11:55:36;;;;;;;33.13;14.52;;;;;;;9.36;100.00;102695.84;4647048;28;20072;-57
2021/12/14 11:58:07;;;;;;;27.27;14.30;;;;;;;9.46;100.00;102701.31;4655233;28;20158;-56
2021/12/14 12:00:37;;;;;;;22.98;14.65;;;;;;;9.35;100.00;102694.13;4705511;28;20029;-58
2021/12/14 12:03:26;;;;;;;24.65;14.35;;;;;;;9.30;100.00;102685.28;4722302;28;20142;-58
2021/12/14 12:06:00;;;;;;;23.23;15.50;;;;;;;9.44;100.00;102699.53;4711958;28;21391;-60
2021/12/14 12:11:16;;;;;;;19.60;13.65;;;;;;;9.54;100.00;102699.78;4474123;28;22282;-57
2021/12/14 12:13:42;;;;;;;26.50;14.77;;;;;;;9.42;100.00;102703.84;4383583;28;20076;-55
2021/12/14 12:16:37;;;;;;;26.55;15.95;;;;;;;9.50;100.00;102708.38;4565506;28;20663;-57